sensor_id;sensor_type;location;lat;lon;timestamp;P1;durP1;ratioP1;P2;durP2;ratioP2
2211;SDS011;48849;48.758;9.158;2022-07-29T00:01:14;8.63;;;7.93;;
2211;SDS011;48849;48.758;9.158;2022-07-29T00:03:42;8.07;;;7.23;;
2211;SDS011;48849;48.758;9.158;2022-07-29T00:06:08;7.80;;;7.00;;
2211;SDS011;48849;48.758;9.158;2022-07-29T00:08:35;7.67;;;6.97;;
2211;SDS011;48849;48.758;9.158;2022-07-29T00:11:02;7.60;;;6.90;;
2211;SDS011;48849;48.758;9.158;2022-07-29T00:13:28;6.63;;;5.93;;
2211;SDS011;48849;48.758;9.158;2022-07-29T00:15:55;7.27;;;6.67;;
2211;SDS011;48849;48.758;9.158;2022-07-29T00:18:23;7.90;;;7.17;;
2211;SDS011;48849;48.758;9.158;2022-07-29T00:20:50;7.50;;;6.80;;
2211;SDS011;48849;48.758;9.158;2022-07-29T00:23:16;8.00;;;7.30;;
2211;SDS011;48849;48.758;9.158;2022-07-29T00:25:43;7.77;;;7.10;;
2211;SDS011;48849;48.758;9.158;2022-07-29T00:28:10;8.73;;;7.93;;
2211;SDS011;48849;48.758;9.158;2022-07-29T00:30:36;8.97;;;8.07;;
2211;SDS011;48849;48.758;9.158;2022-07-29T00:33:03;7.90;;;7.20;;
2211;SDS011;48849;48.758;9.158;2022-07-29T00:35:31;7.60;;;6.90;;
2211;SDS011;48849;48.758;9.158;2022-07-29T00:38:09;7.50;;;6.90;;
2211;SDS011;48849;48.758;9.158;2022-07-29T00:40:36;7.73;;;7.00;;
2211;SDS011;48849;48.758;9.158;2022-07-29T00:43:03;9.20;;;8.30;;
2211;SDS011;48849;48.758;9.158;2022-07-29T00:45:29;6.97;;;6.47;;
2211;SDS011;48849;48.758;9.158;2022-07-29T00:47:57;7.83;;;7.13;;
2211;SDS011;48849;48.758;9.158;2022-07-29T00:50:23;7.37;;;6.70;;
2211;SDS011;48849;48.758;9.158;2022-07-29T00:52:52;8.10;;;7.50;;
2211;SDS011;48849;48.758;9.158;2022-07-29T00:55:19;8.10;;;7.43;;
2211;SDS011;48849;48.758;9.158;2022-07-29T00:57:45;7.00;;;6.50;;
2211;SDS011;48849;48.758;9.158;2022-07-29T01:00:14;7.10;;;6.50;;
2211;SDS011;48849;48.758;9.158;2022-07-29T01:02:43;7.23;;;6.63;;
2211;SDS011;48849;48.758;9.158;2022-07-29T01:05:09;7.23;;;6.63;;
2211;SDS011;48849;48.758;9.158;2022-07-29T01:07:38;7.23;;;6.63;;
2211;SDS011;48849;48.758;9.158;2022-07-29T01:10:07;7.10;;;6.40;;
2211;SDS011;48849;48.758;9.158;2022-07-29T01:12:36;8.83;;;6.47;;
2211;SDS011;48849;48.758;9.158;2022-07-29T01:15:05;7.03;;;6.40;;
2211;SDS011;48849;48.758;9.158;2022-07-29T01:17:36;6.40;;;5.90;;
2211;SDS011;48849;48.758;9.158;2022-07-29T01:20:07;6.70;;;6.13;;
2211;SDS011;48849;48.758;9.158;2022-07-29T01:22:53;8.20;;;5.80;;
2211;SDS011;48849;48.758;9.158;2022-07-29T01:25:40;6.40;;;5.90;;
2211;SDS011;48849;48.758;9.158;2022-07-29T01:28:32;7.23;;;6.60;;
2211;SDS011;48849;48.758;9.158;2022-07-29T01:31:16;6.67;;;6.17;;
2211;SDS011;48849;48.758;9.158;2022-07-29T01:33:48;7.40;;;6.70;;
2211;SDS011;48849;48.758;9.158;2022-07-29T01:36:18;6.60;;;6.10;;
2211;SDS011;48849;48.758;9.158;2022-07-29T01:38:53;6.93;;;6.43;;
2211;SDS011;48849;48.758;9.158;2022-07-29T01:41:24;6.40;;;5.80;;
2211;SDS011;48849;48.758;9.158;2022-07-29T01:43:56;7.07;;;6.47;;
2211;SDS011;48849;48.758;9.158;2022-07-29T01:46:27;6.63;;;6.00;;
2211;SDS011;48849;48.758;9.158;2022-07-29T01:48:59;6.27;;;5.77;;
2211;SDS011;48849;48.758;9.158;2022-07-29T01:51:33;7.37;;;6.77;;
2211;SDS011;48849;48.758;9.158;2022-07-29T01:54:06;6.47;;;5.87;;
2211;SDS011;48849;48.758;9.158;2022-07-29T01:56:36;6.53;;;5.80;;
2211;SDS011;48849;48.758;9.158;2022-07-29T01:59:06;6.17;;;5.53;;
2211;SDS011;48849;48.758;9.158;2022-07-29T02:01:35;5.90;;;5.50;;
2211;SDS011;48849;48.758;9.158;2022-07-29T02:04:03;6.03;;;5.63;;
2211;SDS011;48849;48.758;9.158;2022-07-29T02:06:32;6.10;;;5.60;;
2211;SDS011;48849;48.758;9.158;2022-07-29T02:09:00;6.80;;;6.10;;
2211;SDS011;48849;48.758;9.158;2022-07-29T02:11:28;6.10;;;5.67;;
2211;SDS011;48849;48.758;9.158;2022-07-29T02:13:57;6.70;;;6.13;;
2211;SDS011;48849;48.758;9.158;2022-07-29T02:16:28;6.33;;;5.83;;
2211;SDS011;48849;48.758;9.158;2022-07-29T02:18:56;6.10;;;5.70;;
2211;SDS011;48849;48.758;9.158;2022-07-29T02:21:26;5.33;;;4.93;;
2211;SDS011;48849;48.758;9.158;2022-07-29T02:23:55;6.83;;;6.17;;
2211;SDS011;48849;48.758;9.158;2022-07-29T02:26:25;6.10;;;5.50;;
2211;SDS011;48849;48.758;9.158;2022-07-29T02:28:54;5.70;;;5.30;;
2211;SDS011;48849;48.758;9.158;2022-07-29T02:31:23;6.13;;;5.63;;
2211;SDS011;48849;48.758;9.158;2022-07-29T02:33:55;5.30;;;4.90;;
2211;SDS011;48849;48.758;9.158;2022-07-29T02:36:23;6.33;;;5.67;;
2211;SDS011;48849;48.758;9.158;2022-07-29T02:38:52;6.03;;;5.53;;
2211;SDS011;48849;48.758;9.158;2022-07-29T02:41:23;5.40;;;5.00;;
2211;SDS011;48849;48.758;9.158;2022-07-29T02:43:53;5.57;;;5.07;;
2211;SDS011;48849;48.758;9.158;2022-07-29T02:46:24;5.27;;;4.87;;
2211;SDS011;48849;48.758;9.158;2022-07-29T02:48:57;5.17;;;4.77;;
2211;SDS011;48849;48.758;9.158;2022-07-29T02:51:27;5.13;;;4.73;;
2211;SDS011;48849;48.758;9.158;2022-07-29T02:53:59;5.07;;;4.77;;
2211;SDS011;48849;48.758;9.158;2022-07-29T02:56:31;5.23;;;4.83;;
2211;SDS011;48849;48.758;9.158;2022-07-29T02:59:03;5.43;;;5.03;;
2211;SDS011;48849;48.758;9.158;2022-07-29T03:01:33;5.27;;;4.87;;
2211;SDS011;48849;48.758;9.158;2022-07-29T03:04:03;5.00;;;4.60;;
2211;SDS011;48849;48.758;9.158;2022-07-29T03:06:31;4.83;;;4.43;;
2211;SDS011;48849;48.758;9.158;2022-07-29T03:08:59;5.00;;;4.60;;
2211;SDS011;48849;48.758;9.158;2022-07-29T03:11:27;4.73;;;4.33;;
2211;SDS011;48849;48.758;9.158;2022-07-29T03:13:54;5.53;;;5.03;;
2211;SDS011;48849;48.758;9.158;2022-07-29T03:16:22;5.17;;;4.67;;
2211;SDS011;48849;48.758;9.158;2022-07-29T03:18:49;4.80;;;4.50;;
2211;SDS011;48849;48.758;9.158;2022-07-29T03:21:17;5.83;;;5.27;;
2211;SDS011;48849;48.758;9.158;2022-07-29T03:23:44;4.70;;;4.17;;
2211;SDS011;48849;48.758;9.158;2022-07-29T03:26:11;4.97;;;4.57;;
2211;SDS011;48849;48.758;9.158;2022-07-29T03:28:38;5.33;;;4.83;;
2211;SDS011;48849;48.758;9.158;2022-07-29T03:31:05;5.70;;;5.10;;
2211;SDS011;48849;48.758;9.158;2022-07-29T03:33:32;5.83;;;4.90;;
2211;SDS011;48849;48.758;9.158;2022-07-29T03:35:58;4.67;;;4.17;;
2211;SDS011;48849;48.758;9.158;2022-07-29T03:38:29;5.37;;;4.87;;
2211;SDS011;48849;48.758;9.158;2022-07-29T03:41:00;5.30;;;4.90;;
2211;SDS011;48849;48.758;9.158;2022-07-29T03:43:32;5.50;;;5.10;;
2211;SDS011;48849;48.758;9.158;2022-07-29T03:46:02;5.07;;;4.67;;
2211;SDS011;48849;48.758;9.158;2022-07-29T03:48:32;5.50;;;5.00;;
2211;SDS011;48849;48.758;9.158;2022-07-29T03:51:00;5.27;;;4.87;;
2211;SDS011;48849;48.758;9.158;2022-07-29T03:53:29;5.40;;;5.00;;
2211;SDS011;48849;48.758;9.158;2022-07-29T03:55:58;5.30;;;4.90;;
2211;SDS011;48849;48.758;9.158;2022-07-29T03:58:28;4.63;;;4.33;;
2211;SDS011;48849;48.758;9.158;2022-07-29T04:00:56;6.63;;;4.50;;
2211;SDS011;48849;48.758;9.158;2022-07-29T04:03:24;6.03;;;5.43;;
2211;SDS011;48849;48.758;9.158;2022-07-29T04:05:57;5.10;;;4.80;;
2211;SDS011;48849;48.758;9.158;2022-07-29T04:08:25;5.20;;;4.80;;
2211;SDS011;48849;48.758;9.158;2022-07-29T04:10:53;4.87;;;4.57;;
2211;SDS011;48849;48.758;9.158;2022-07-29T04:13:20;5.23;;;4.83;;
2211;SDS011;48849;48.758;9.158;2022-07-29T04:15:47;5.60;;;5.20;;
2211;SDS011;48849;48.758;9.158;2022-07-29T04:18:14;5.13;;;4.73;;
2211;SDS011;48849;48.758;9.158;2022-07-29T04:20:41;5.60;;;5.13;;
2211;SDS011;48849;48.758;9.158;2022-07-29T04:23:07;5.30;;;4.87;;
2211;SDS011;48849;48.758;9.158;2022-07-29T04:25:36;6.13;;;5.60;;
2211;SDS011;48849;48.758;9.158;2022-07-29T04:28:04;5.27;;;4.87;;
2211;SDS011;48849;48.758;9.158;2022-07-29T04:30:32;6.90;;;6.33;;
2211;SDS011;48849;48.758;9.158;2022-07-29T04:32:59;5.87;;;5.47;;
2211;SDS011;48849;48.758;9.158;2022-07-29T04:35:27;5.20;;;4.80;;
2211;SDS011;48849;48.758;9.158;2022-07-29T04:37:54;5.93;;;5.10;;
2211;SDS011;48849;48.758;9.158;2022-07-29T04:40:20;5.80;;;4.83;;
2211;SDS011;48849;48.758;9.158;2022-07-29T04:42:47;5.97;;;5.47;;
2211;SDS011;48849;48.758;9.158;2022-07-29T04:45:15;5.50;;;5.10;;
2211;SDS011;48849;48.758;9.158;2022-07-29T04:47:42;6.77;;;6.10;;
2211;SDS011;48849;48.758;9.158;2022-07-29T04:50:09;5.77;;;5.30;;
2211;SDS011;48849;48.758;9.158;2022-07-29T04:52:36;6.20;;;5.70;;
2211;SDS011;48849;48.758;9.158;2022-07-29T04:55:03;5.10;;;4.80;;
2211;SDS011;48849;48.758;9.158;2022-07-29T04:57:30;5.67;;;5.23;;
2211;SDS011;48849;48.758;9.158;2022-07-29T04:59:57;5.27;;;4.87;;
2211;SDS011;48849;48.758;9.158;2022-07-29T05:02:25;5.37;;;4.87;;
2211;SDS011;48849;48.758;9.158;2022-07-29T05:04:52;5.17;;;4.67;;
2211;SDS011;48849;48.758;9.158;2022-07-29T05:07:18;4.90;;;4.50;;
2211;SDS011;48849;48.758;9.158;2022-07-29T05:09:45;4.97;;;3.73;;
2211;SDS011;48849;48.758;9.158;2022-07-29T05:12:12;4.43;;;3.87;;
2211;SDS011;48849;48.758;9.158;2022-07-29T05:14:38;4.40;;;4.00;;
2211;SDS011;48849;48.758;9.158;2022-07-29T05:17:05;4.07;;;3.77;;
2211;SDS011;48849;48.758;9.158;2022-07-29T05:19:33;4.57;;;4.20;;
2211;SDS011;48849;48.758;9.158;2022-07-29T05:21:59;4.90;;;4.27;;
2211;SDS011;48849;48.758;9.158;2022-07-29T05:24:26;4.10;;;3.80;;
2211;SDS011;48849;48.758;9.158;2022-07-29T05:26:53;4.30;;;4.00;;
2211;SDS011;48849;48.758;9.158;2022-07-29T05:29:19;3.97;;;3.67;;
2211;SDS011;48849;48.758;9.158;2022-07-29T05:31:46;3.67;;;3.40;;
2211;SDS011;48849;48.758;9.158;2022-07-29T05:34:13;4.50;;;3.50;;
2211;SDS011;48849;48.758;9.158;2022-07-29T05:36:41;4.53;;;3.60;;
2211;SDS011;48849;48.758;9.158;2022-07-29T05:39:08;3.87;;;3.47;;
2211;SDS011;48849;48.758;9.158;2022-07-29T05:41:34;4.57;;;4.17;;
2211;SDS011;48849;48.758;9.158;2022-07-29T05:44:01;5.20;;;3.40;;
2211;SDS011;48849;48.758;9.158;2022-07-29T05:46:28;3.47;;;3.17;;
2211;SDS011;48849;48.758;9.158;2022-07-29T05:48:55;3.77;;;3.47;;
2211;SDS011;48849;48.758;9.158;2022-07-29T05:51:22;3.50;;;3.20;;
2211;SDS011;48849;48.758;9.158;2022-07-29T05:53:50;3.93;;;3.63;;
2211;SDS011;48849;48.758;9.158;2022-07-29T05:56:16;3.67;;;3.37;;
2211;SDS011;48849;48.758;9.158;2022-07-29T05:58:43;4.05;;;3.75;;
2211;SDS011;48849;48.758;9.158;2022-07-29T06:01:10;4.47;;;3.60;;
2211;SDS011;48849;48.758;9.158;2022-07-29T06:03:37;3.90;;;3.60;;
2211;SDS011;48849;48.758;9.158;2022-07-29T06:06:03;3.80;;;3.50;;
2211;SDS011;48849;48.758;9.158;2022-07-29T06:08:32;3.87;;;3.53;;
2211;SDS011;48849;48.758;9.158;2022-07-29T06:11:01;3.87;;;3.57;;
2211;SDS011;48849;48.758;9.158;2022-07-29T06:13:28;4.17;;;3.80;;
2211;SDS011;48849;48.758;9.158;2022-07-29T06:15:55;3.80;;;3.50;;
2211;SDS011;48849;48.758;9.158;2022-07-29T06:18:22;4.33;;;3.67;;
2211;SDS011;48849;48.758;9.158;2022-07-29T06:20:49;3.90;;;3.60;;
2211;SDS011;48849;48.758;9.158;2022-07-29T06:23:16;4.03;;;3.73;;
2211;SDS011;48849;48.758;9.158;2022-07-29T06:25:43;3.43;;;3.13;;
2211;SDS011;48849;48.758;9.158;2022-07-29T06:28:11;4.20;;;3.80;;
2211;SDS011;48849;48.758;9.158;2022-07-29T06:30:38;4.00;;;3.60;;
2211;SDS011;48849;48.758;9.158;2022-07-29T06:33:05;6.20;;;4.43;;
2211;SDS011;48849;48.758;9.158;2022-07-29T06:35:33;4.43;;;3.97;;
2211;SDS011;48849;48.758;9.158;2022-07-29T06:38:01;6.63;;;4.10;;
2211;SDS011;48849;48.758;9.158;2022-07-29T06:40:28;4.57;;;4.17;;
2211;SDS011;48849;48.758;9.158;2022-07-29T06:43:14;4.03;;;3.73;;
2211;SDS011;48849;48.758;9.158;2022-07-29T06:45:40;4.53;;;3.83;;
2211;SDS011;48849;48.758;9.158;2022-07-29T06:48:08;4.60;;;4.20;;
2211;SDS011;48849;48.758;9.158;2022-07-29T06:50:34;4.73;;;4.00;;
2211;SDS011;48849;48.758;9.158;2022-07-29T06:53:01;4.20;;;3.80;;
2211;SDS011;48849;48.758;9.158;2022-07-29T06:55:28;4.10;;;3.70;;
2211;SDS011;48849;48.758;9.158;2022-07-29T06:57:55;7.90;;;4.80;;
2211;SDS011;48849;48.758;9.158;2022-07-29T07:00:23;9.13;;;4.83;;
2211;SDS011;48849;48.758;9.158;2022-07-29T07:02:50;5.53;;;4.97;;
2211;SDS011;48849;48.758;9.158;2022-07-29T07:05:16;7.07;;;5.23;;
2211;SDS011;48849;48.758;9.158;2022-07-29T07:07:43;7.27;;;4.80;;
2211;SDS011;48849;48.758;9.158;2022-07-29T07:10:10;5.67;;;5.07;;
2211;SDS011;48849;48.758;9.158;2022-07-29T07:12:36;4.80;;;4.40;;
2211;SDS011;48849;48.758;9.158;2022-07-29T07:15:03;5.20;;;4.80;;
2211;SDS011;48849;48.758;9.158;2022-07-29T07:17:32;5.00;;;4.50;;
2211;SDS011;48849;48.758;9.158;2022-07-29T07:19:59;4.47;;;4.17;;
2211;SDS011;48849;48.758;9.158;2022-07-29T07:22:26;6.73;;;4.30;;
2211;SDS011;48849;48.758;9.158;2022-07-29T07:24:53;4.37;;;3.93;;
2211;SDS011;48849;48.758;9.158;2022-07-29T07:27:19;4.90;;;4.27;;
2211;SDS011;48849;48.758;9.158;2022-07-29T07:29:46;5.17;;;4.70;;
2211;SDS011;48849;48.758;9.158;2022-07-29T07:34:42;5.40;;;4.90;;
2211;SDS011;48849;48.758;9.158;2022-07-29T07:37:09;4.80;;;4.40;;
2211;SDS011;48849;48.758;9.158;2022-07-29T07:39:36;5.97;;;4.80;;
2211;SDS011;48849;48.758;9.158;2022-07-29T07:42:02;4.83;;;4.50;;
2211;SDS011;48849;48.758;9.158;2022-07-29T07:44:29;10.30;;;5.20;;
2211;SDS011;48849;48.758;9.158;2022-07-29T07:46:56;4.53;;;4.23;;
2211;SDS011;48849;48.758;9.158;2022-07-29T07:49:23;4.90;;;4.40;;
2211;SDS011;48849;48.758;9.158;2022-07-29T07:51:51;4.40;;;4.10;;
2211;SDS011;48849;48.758;9.158;2022-07-29T07:54:18;5.90;;;4.70;;
2211;SDS011;48849;48.758;9.158;2022-07-29T07:56:45;8.13;;;5.03;;
2211;SDS011;48849;48.758;9.158;2022-07-29T07:59:13;8.20;;;4.90;;
2211;SDS011;48849;48.758;9.158;2022-07-29T08:01:40;4.57;;;4.17;;
2211;SDS011;48849;48.758;9.158;2022-07-29T08:04:07;4.53;;;4.23;;
2211;SDS011;48849;48.758;9.158;2022-07-29T08:06:33;4.90;;;4.40;;
2211;SDS011;48849;48.758;9.158;2022-07-29T08:09:02;4.70;;;4.30;;
2211;SDS011;48849;48.758;9.158;2022-07-29T08:11:29;4.70;;;4.40;;
2211;SDS011;48849;48.758;9.158;2022-07-29T08:13:56;5.17;;;4.77;;
2211;SDS011;48849;48.758;9.158;2022-07-29T08:16:23;5.97;;;4.77;;
2211;SDS011;48849;48.758;9.158;2022-07-29T08:18:50;5.87;;;5.37;;
2211;SDS011;48849;48.758;9.158;2022-07-29T08:21:22;6.03;;;5.43;;
2211;SDS011;48849;48.758;9.158;2022-07-29T08:23:49;5.70;;;5.20;;
2211;SDS011;48849;48.758;9.158;2022-07-29T08:26:19;6.10;;;5.57;;
2211;SDS011;48849;48.758;9.158;2022-07-29T08:28:47;5.97;;;5.40;;
2211;SDS011;48849;48.758;9.158;2022-07-29T08:31:16;6.53;;;5.40;;
2211;SDS011;48849;48.758;9.158;2022-07-29T08:33:43;5.43;;;4.80;;
2211;SDS011;48849;48.758;9.158;2022-07-29T08:36:10;6.20;;;5.60;;
2211;SDS011;48849;48.758;9.158;2022-07-29T08:38:38;4.57;;;4.27;;
2211;SDS011;48849;48.758;9.158;2022-07-29T08:41:05;5.47;;;4.97;;
2211;SDS011;48849;48.758;9.158;2022-07-29T08:43:33;5.90;;;5.40;;
2211;SDS011;48849;48.758;9.158;2022-07-29T08:46:02;5.23;;;4.73;;
2211;SDS011;48849;48.758;9.158;2022-07-29T08:48:29;5.03;;;4.63;;
2211;SDS011;48849;48.758;9.158;2022-07-29T08:50:56;5.53;;;5.00;;
2211;SDS011;48849;48.758;9.158;2022-07-29T08:53:23;4.97;;;4.57;;
2211;SDS011;48849;48.758;9.158;2022-07-29T08:55:52;5.60;;;5.10;;
2211;SDS011;48849;48.758;9.158;2022-07-29T08:58:20;4.87;;;4.47;;
2211;SDS011;48849;48.758;9.158;2022-07-29T09:00:50;5.10;;;4.53;;
2211;SDS011;48849;48.758;9.158;2022-07-29T09:03:18;5.10;;;4.57;;
2211;SDS011;48849;48.758;9.158;2022-07-29T09:05:48;4.37;;;4.07;;
2211;SDS011;48849;48.758;9.158;2022-07-29T09:08:16;5.63;;;4.50;;
2211;SDS011;48849;48.758;9.158;2022-07-29T09:10:43;5.10;;;4.70;;
2211;SDS011;48849;48.758;9.158;2022-07-29T09:13:10;5.80;;;5.30;;
2211;SDS011;48849;48.758;9.158;2022-07-29T09:15:37;5.87;;;5.37;;
2211;SDS011;48849;48.758;9.158;2022-07-29T09:18:05;5.93;;;5.43;;
2211;SDS011;48849;48.758;9.158;2022-07-29T09:20:32;5.10;;;4.70;;
2211;SDS011;48849;48.758;9.158;2022-07-29T09:23:13;6.70;;;4.90;;
2211;SDS011;48849;48.758;9.158;2022-07-29T09:25:40;5.87;;;5.37;;
2211;SDS011;48849;48.758;9.158;2022-07-29T09:28:07;5.10;;;4.70;;
2211;SDS011;48849;48.758;9.158;2022-07-29T09:30:34;4.97;;;4.57;;
2211;SDS011;48849;48.758;9.158;2022-07-29T09:33:02;5.33;;;4.83;;
2211;SDS011;48849;48.758;9.158;2022-07-29T09:35:30;5.90;;;5.43;;
2211;SDS011;48849;48.758;9.158;2022-07-29T09:37:57;5.10;;;4.70;;
2211;SDS011;48849;48.758;9.158;2022-07-29T09:40:35;5.17;;;4.67;;
2211;SDS011;48849;48.758;9.158;2022-07-29T09:43:08;4.63;;;4.33;;
2211;SDS011;48849;48.758;9.158;2022-07-29T09:45:36;4.80;;;4.40;;
2211;SDS011;48849;48.758;9.158;2022-07-29T09:48:12;5.20;;;4.80;;
2211;SDS011;48849;48.758;9.158;2022-07-29T09:50:42;5.13;;;4.63;;
2211;SDS011;48849;48.758;9.158;2022-07-29T09:53:09;6.10;;;5.07;;
2211;SDS011;48849;48.758;9.158;2022-07-29T09:55:47;6.63;;;6.03;;
2211;SDS011;48849;48.758;9.158;2022-07-29T09:58:15;5.60;;;5.00;;
2211;SDS011;48849;48.758;9.158;2022-07-29T10:00:43;6.10;;;5.37;;
2211;SDS011;48849;48.758;9.158;2022-07-29T10:03:11;7.60;;;6.80;;
2211;SDS011;48849;48.758;9.158;2022-07-29T10:05:38;6.43;;;5.80;;
2211;SDS011;48849;48.758;9.158;2022-07-29T10:08:08;6.40;;;5.60;;
2211;SDS011;48849;48.758;9.158;2022-07-29T10:10:37;7.07;;;5.93;;
2211;SDS011;48849;48.758;9.158;2022-07-29T10:13:07;5.53;;;5.03;;
2211;SDS011;48849;48.758;9.158;2022-07-29T10:15:35;6.17;;;5.67;;
2211;SDS011;48849;48.758;9.158;2022-07-29T10:18:04;9.77;;;8.70;;
2211;SDS011;48849;48.758;9.158;2022-07-29T10:20:32;12.23;;;11.13;;
2211;SDS011;48849;48.758;9.158;2022-07-29T10:22:59;8.00;;;7.20;;
2211;SDS011;48849;48.758;9.158;2022-07-29T10:25:27;8.60;;;7.73;;
2211;SDS011;48849;48.758;9.158;2022-07-29T10:27:54;7.70;;;7.00;;
2211;SDS011;48849;48.758;9.158;2022-07-29T10:30:22;7.10;;;6.50;;
2211;SDS011;48849;48.758;9.158;2022-07-29T10:33:00;7.30;;;6.60;;
2211;SDS011;48849;48.758;9.158;2022-07-29T10:35:43;7.73;;;7.13;;
2211;SDS011;48849;48.758;9.158;2022-07-29T10:38:25;9.70;;;8.90;;
2211;SDS011;48849;48.758;9.158;2022-07-29T10:41:05;10.10;;;8.67;;
2211;SDS011;48849;48.758;9.158;2022-07-29T10:43:56;7.53;;;6.83;;
2211;SDS011;48849;48.758;9.158;2022-07-29T10:46:27;8.63;;;7.83;;
2211;SDS011;48849;48.758;9.158;2022-07-29T10:49:03;8.17;;;7.50;;
2211;SDS011;48849;48.758;9.158;2022-07-29T10:54:35;10.70;;;8.20;;
2211;SDS011;48849;48.758;9.158;2022-07-29T10:57:12;9.60;;;8.60;;
2211;SDS011;48849;48.758;9.158;2022-07-29T10:59:45;9.40;;;8.40;;
2211;SDS011;48849;48.758;9.158;2022-07-29T11:05:08;11.47;;;10.33;;
2211;SDS011;48849;48.758;9.158;2022-07-29T11:07:37;11.47;;;10.40;;
2211;SDS011;48849;48.758;9.158;2022-07-29T11:10:24;18.00;;;15.23;;
2211;SDS011;48849;48.758;9.158;2022-07-29T11:12:52;12.70;;;11.00;;
2211;SDS011;48849;48.758;9.158;2022-07-29T11:15:19;22.10;;;14.47;;
2211;SDS011;48849;48.758;9.158;2022-07-29T11:18:03;21.23;;;13.40;;
2211;SDS011;48849;48.758;9.158;2022-07-29T11:20:32;14.23;;;11.00;;
2211;SDS011;48849;48.758;9.158;2022-07-29T11:23:17;12.60;;;11.30;;
2211;SDS011;48849;48.758;9.158;2022-07-29T11:25:44;10.90;;;9.80;;
2211;SDS011;48849;48.758;9.158;2022-07-29T11:28:15;10.23;;;9.17;;
2211;SDS011;48849;48.758;9.158;2022-07-29T11:30:48;10.03;;;9.00;;
2211;SDS011;48849;48.758;9.158;2022-07-29T11:33:29;10.80;;;9.47;;
2211;SDS011;48849;48.758;9.158;2022-07-29T11:36:08;10.87;;;9.97;;
2211;SDS011;48849;48.758;9.158;2022-07-29T11:38:36;12.20;;;10.37;;
2211;SDS011;48849;48.758;9.158;2022-07-29T11:43:56;11.77;;;10.30;;
2211;SDS011;48849;48.758;9.158;2022-07-29T11:46:43;10.70;;;9.83;;
2211;SDS011;48849;48.758;9.158;2022-07-29T11:49:12;12.20;;;11.20;;
2211;SDS011;48849;48.758;9.158;2022-07-29T11:51:39;12.27;;;11.03;;
2211;SDS011;48849;48.758;9.158;2022-07-29T11:54:07;13.00;;;11.53;;
2211;SDS011;48849;48.758;9.158;2022-07-29T11:56:38;13.77;;;12.50;;
2211;SDS011;48849;48.758;9.158;2022-07-29T11:59:09;21.20;;;18.80;;
2211;SDS011;48849;48.758;9.158;2022-07-29T12:01:36;12.60;;;11.40;;
2211;SDS011;48849;48.758;9.158;2022-07-29T12:04:17;11.83;;;10.60;;
2211;SDS011;48849;48.758;9.158;2022-07-29T12:06:48;10.10;;;9.00;;
2211;SDS011;48849;48.758;9.158;2022-07-29T12:09:15;9.97;;;9.17;;
2211;SDS011;48849;48.758;9.158;2022-07-29T12:11:42;9.03;;;8.13;;
2211;SDS011;48849;48.758;9.158;2022-07-29T12:14:10;8.60;;;7.90;;
2211;SDS011;48849;48.758;9.158;2022-07-29T12:16:51;8.40;;;7.80;;
2211;SDS011;48849;48.758;9.158;2022-07-29T12:19:17;9.87;;;8.90;;
2211;SDS011;48849;48.758;9.158;2022-07-29T12:21:44;9.20;;;8.40;;
2211;SDS011;48849;48.758;9.158;2022-07-29T12:24:11;8.40;;;7.70;;
2211;SDS011;48849;48.758;9.158;2022-07-29T12:26:48;9.93;;;9.03;;
2211;SDS011;48849;48.758;9.158;2022-07-29T12:29:17;10.67;;;8.90;;
2211;SDS011;48849;48.758;9.158;2022-07-29T12:31:44;8.77;;;7.90;;
2211;SDS011;48849;48.758;9.158;2022-07-29T12:34:12;17.27;;;15.47;;
2211;SDS011;48849;48.758;9.158;2022-07-29T12:36:41;26.63;;;24.03;;
2211;SDS011;48849;48.758;9.158;2022-07-29T12:39:08;43.77;;;30.43;;
2211;SDS011;48849;48.758;9.158;2022-07-29T12:41:36;10.30;;;9.50;;
2211;SDS011;48849;48.758;9.158;2022-07-29T12:44:04;12.17;;;11.10;;
2211;SDS011;48849;48.758;9.158;2022-07-29T12:46:32;15.13;;;13.60;;
2211;SDS011;48849;48.758;9.158;2022-07-29T12:48:58;9.77;;;9.00;;
2211;SDS011;48849;48.758;9.158;2022-07-29T12:51:28;9.30;;;8.47;;
2211;SDS011;48849;48.758;9.158;2022-07-29T12:54:04;8.67;;;8.00;;
2211;SDS011;48849;48.758;9.158;2022-07-29T12:56:33;9.27;;;8.37;;
2211;SDS011;48849;48.758;9.158;2022-07-29T12:59:00;8.53;;;7.83;;
2211;SDS011;48849;48.758;9.158;2022-07-29T13:01:39;14.13;;;12.83;;
2211;SDS011;48849;48.758;9.158;2022-07-29T13:04:05;8.90;;;8.20;;
2211;SDS011;48849;48.758;9.158;2022-07-29T13:06:34;9.67;;;8.20;;
2211;SDS011;48849;48.758;9.158;2022-07-29T13:09:05;9.07;;;8.00;;
2211;SDS011;48849;48.758;9.158;2022-07-29T13:11:35;8.53;;;7.83;;
2211;SDS011;48849;48.758;9.158;2022-07-29T13:14:04;8.63;;;7.73;;
2211;SDS011;48849;48.758;9.158;2022-07-29T13:16:32;9.70;;;8.80;;
2211;SDS011;48849;48.758;9.158;2022-07-29T13:19:07;9.47;;;8.47;;
2211;SDS011;48849;48.758;9.158;2022-07-29T13:21:35;9.93;;;8.93;;
2211;SDS011;48849;48.758;9.158;2022-07-29T13:24:03;8.43;;;7.73;;
2211;SDS011;48849;48.758;9.158;2022-07-29T13:26:30;8.70;;;7.20;;
2211;SDS011;48849;48.758;9.158;2022-07-29T13:28:57;9.10;;;8.10;;
2211;SDS011;48849;48.758;9.158;2022-07-29T13:31:24;12.40;;;11.20;;
2211;SDS011;48849;48.758;9.158;2022-07-29T13:33:51;12.87;;;11.53;;
2211;SDS011;48849;48.758;9.158;2022-07-29T13:36:19;10.53;;;9.30;;
2211;SDS011;48849;48.758;9.158;2022-07-29T13:38:47;8.70;;;7.80;;
2211;SDS011;48849;48.758;9.158;2022-07-29T13:41:14;8.80;;;8.07;;
2211;SDS011;48849;48.758;9.158;2022-07-29T13:43:41;9.07;;;8.17;;
2211;SDS011;48849;48.758;9.158;2022-07-29T13:46:07;9.30;;;8.40;;
2211;SDS011;48849;48.758;9.158;2022-07-29T13:48:34;10.60;;;9.60;;
2211;SDS011;48849;48.758;9.158;2022-07-29T13:51:01;10.70;;;9.70;;
2211;SDS011;48849;48.758;9.158;2022-07-29T13:53:29;10.50;;;9.50;;
2211;SDS011;48849;48.758;9.158;2022-07-29T13:55:55;9.93;;;8.93;;
2211;SDS011;48849;48.758;9.158;2022-07-29T13:58:22;11.73;;;9.73;;
2211;SDS011;48849;48.758;9.158;2022-07-29T14:00:49;11.40;;;10.23;;
2211;SDS011;48849;48.758;9.158;2022-07-29T14:03:16;11.20;;;9.77;;
2211;SDS011;48849;48.758;9.158;2022-07-29T14:05:43;12.00;;;10.20;;
2211;SDS011;48849;48.758;9.158;2022-07-29T14:08:10;11.60;;;10.50;;
2211;SDS011;48849;48.758;9.158;2022-07-29T14:10:38;9.83;;;9.03;;
2211;SDS011;48849;48.758;9.158;2022-07-29T14:13:05;10.70;;;9.80;;
2211;SDS011;48849;48.758;9.158;2022-07-29T14:15:32;12.10;;;11.00;;
2211;SDS011;48849;48.758;9.158;2022-07-29T14:17:58;11.27;;;10.37;;
2211;SDS011;48849;48.758;9.158;2022-07-29T14:20:25;11.60;;;10.40;;
2211;SDS011;48849;48.758;9.158;2022-07-29T14:22:53;11.33;;;10.33;;
2211;SDS011;48849;48.758;9.158;2022-07-29T14:25:20;12.53;;;11.43;;
2211;SDS011;48849;48.758;9.158;2022-07-29T14:27:48;11.27;;;10.23;;
2211;SDS011;48849;48.758;9.158;2022-07-29T14:30:14;11.17;;;10.27;;
2211;SDS011;48849;48.758;9.158;2022-07-29T14:32:41;11.70;;;10.80;;
2211;SDS011;48849;48.758;9.158;2022-07-29T14:35:08;14.33;;;13.03;;
2211;SDS011;48849;48.758;9.158;2022-07-29T14:37:34;12.33;;;11.13;;
2211;SDS011;48849;48.758;9.158;2022-07-29T14:40:01;11.60;;;10.60;;
2211;SDS011;48849;48.758;9.158;2022-07-29T14:42:29;12.67;;;11.30;;
2211;SDS011;48849;48.758;9.158;2022-07-29T14:44:57;11.30;;;10.23;;
2211;SDS011;48849;48.758;9.158;2022-07-29T14:47:24;11.27;;;10.17;;
2211;SDS011;48849;48.758;9.158;2022-07-29T14:49:51;11.47;;;10.47;;
2211;SDS011;48849;48.758;9.158;2022-07-29T14:52:17;11.93;;;11.03;;
2211;SDS011;48849;48.758;9.158;2022-07-29T14:54:44;12.07;;;11.17;;
2211;SDS011;48849;48.758;9.158;2022-07-29T14:57:11;12.40;;;11.23;;
2211;SDS011;48849;48.758;9.158;2022-07-29T14:59:37;14.90;;;11.53;;
2211;SDS011;48849;48.758;9.158;2022-07-29T15:02:06;11.93;;;11.03;;
2211;SDS011;48849;48.758;9.158;2022-07-29T15:04:32;13.10;;;12.00;;
2211;SDS011;48849;48.758;9.158;2022-07-29T15:06:59;13.73;;;12.63;;
2211;SDS011;48849;48.758;9.158;2022-07-29T15:09:26;11.80;;;10.70;;
2211;SDS011;48849;48.758;9.158;2022-07-29T15:11:53;12.47;;;11.47;;
2211;SDS011;48849;48.758;9.158;2022-07-29T15:14:19;12.43;;;11.37;;
2211;SDS011;48849;48.758;9.158;2022-07-29T15:16:46;13.70;;;12.33;;